Time;durP1;ratioP1;P1;durP2;ratioP2;P2;SDS_P1;SDS_P2;PMS_P1;PMS_P2;Temp;Humidity;BMP_temperature;BMP_pressure;BME280_temperature;BME280_humidity;BME280_pressure;Samples;Min_cycle;Max_cycle;Signal;HPM_P1;HPM_P2
2021/09/19 00:00:04;;;;;;;35.30;14.20;;;;;;;;;;1872960;77;21033;-50
2021/09/19 00:02:33;;;;;;;19.23;8.85;;;;;;;;;;1872962;77;21114;-49
2021/09/19 00:05:02;;;;;;;18.02;7.90;;;;;;;;;;1872839;75;21021;-48
2021/09/19 00:07:31;;;;;;;14.73;7.75;;;;;;;;;;1872903;75;21102;-49
2021/09/19 00:10:00;;;;;;;12.05;6.72;;;;;;;;;;1872840;76;21052;-48
2021/09/19 00:12:28;;;;;;;11.38;6.25;;;;;;;;;;1872980;77;21034;-49
2021/09/19 00:14:57;;;;;;;11.00;5.78;;;;;;;;;;1885275;75;21048;-51
2021/09/19 00:17:26;;;;;;;13.70;7.53;;;;;;;;;;1891723;76;21028;-48
2021/09/19 00:19:55;;;;;;;11.53;6.87;;;;;;;;;;1891769;76;21114;-48
2021/09/19 00:22:24;;;;;;;12.05;6.97;;;;;;;;;;1891551;74;21075;-51
2021/09/19 00:24:52;;;;;;;10.15;6.75;;;;;;;;;;1891546;75;21036;-49
2021/09/19 00:27:21;;;;;;;12.03;6.37;;;;;;;;;;1891616;75;21036;-49
2021/09/19 00:29:50;;;;;;;12.55;7.15;;;;;;;;;;1891759;75;21024;-48
2021/09/19 00:32:19;;;;;;;7.03;5.58;;;;;;;;;;1891778;76;21130;-48
2021/09/19 00:34:48;;;;;;;8.63;5.30;;;;;;;;;;1891729;75;21093;-51
2021/09/19 00:37:16;;;;;;;7.62;5.28;;;;;;;;;;1891642;74;21016;-48
2021/09/19 00:39:45;;;;;;;8.70;5.80;;;;;;;;;;1891615;75;21040;-51
2021/09/19 00:42:14;;;;;;;9.15;6.30;;;;;;;;;;1891770;76;21090;-48
2021/09/19 00:44:42;;;;;;;7.25;5.97;;;;;;;;;;1891644;76;21036;-48
2021/09/19 00:47:11;;;;;;;7.80;5.45;;;;;;;;;;1891639;74;21012;-50
2021/09/19 00:49:40;;;;;;;27.75;12.68;;;;;;;;;;1891566;75;21024;-49
2021/09/19 00:52:09;;;;;;;22.00;10.23;;;;;;;;;;1891641;75;21044;-47
2021/09/19 00:54:43;;;;;;;14.28;9.63;;;;;;;;;;1891606;76;21024;-48
2021/09/19 00:57:08;;;;;;;10.72;6.92;;;;;;;;;;1890206;74;21781;-51
2021/09/19 00:59:38;;;;;;;15.30;8.33;;;;;;;;;;1891625;75;21099;-48
2021/09/19 01:02:08;;;;;;;15.43;8.15;;;;;;;;;;1891695;75;21028;-48
2021/09/19 01:04:37;;;;;;;16.07;8.55;;;;;;;;;;1891729;75;21063;-49
2021/09/19 01:07:06;;;;;;;11.35;6.95;;;;;;;;;;1891643;76;21036;-48
2021/09/19 01:09:35;;;;;;;19.82;5.97;;;;;;;;;;1891687;75;21040;-51
2021/09/19 01:12:04;;;;;;;7.22;5.47;;;;;;;;;;1891761;74;21020;-49
2021/09/19 01:14:33;;;;;;;7.58;6.17;;;;;;;;;;1891668;75;21056;-51
2021/09/19 01:17:02;;;;;;;7.05;5.55;;;;;;;;;;1891660;75;21005;-48
2021/09/19 01:19:33;;;;;;;6.45;5.20;;;;;;;;;;1891601;76;21032;-48
2021/09/19 01:22:02;;;;;;;9.73;6.17;;;;;;;;;;1891660;75;21016;-48
2021/09/19 01:24:30;;;;;;;10.72;7.17;;;;;;;;;;1891635;75;21032;-50
2021/09/19 01:26:59;;;;;;;9.10;6.42;;;;;;;;;;1891546;75;21153;-48
2021/09/19 01:29:28;;;;;;;9.48;5.60;;;;;;;;;;1891426;74;21044;-51
2021/09/19 01:31:57;;;;;;;8.80;6.15;;;;;;;;;;1891673;76;21044;-48
2021/09/19 01:34:26;;;;;;;9.23;5.87;;;;;;;;;;1891645;75;21032;-48
2021/09/19 01:36:54;;;;;;;7.30;5.95;;;;;;;;;;1891674;75;21040;-49
2021/09/19 01:39:23;;;;;;;9.33;5.50;;;;;;;;;;1891649;74;21098;-49
2021/09/19 01:41:52;;;;;;;8.55;6.92;;;;;;;;;;1891606;75;21044;-47
2021/09/19 01:44:21;;;;;;;10.88;7.33;;;;;;;;;;1891723;76;21016;-48
2021/09/19 01:46:50;;;;;;;8.05;7.08;;;;;;;;;;1891742;75;21075;-51
2021/09/19 01:49:19;;;;;;;10.58;7.65;;;;;;;;;;1891605;76;21040;-48
2021/09/19 01:51:47;;;;;;;9.28;6.92;;;;;;;;;;1891653;74;21098;-50
2021/09/19 01:54:16;;;;;;;9.98;7.78;;;;;;;;;;1891583;75;21044;-47
2021/09/19 01:56:45;;;;;;;8.95;6.72;;;;;;;;;;1891626;75;21032;-51
2021/09/19 01:59:14;;;;;;;9.13;7.00;;;;;;;;;;1891774;75;21036;-48
2021/09/19 02:01:43;;;;;;;14.38;8.60;;;;;;;;;;1891644;75;21040;-48
2021/09/19 02:04:13;;;;;;;9.80;6.85;;;;;;;;;;1891603;75;21036;-47
2021/09/19 02:06:42;;;;;;;9.20;7.17;;;;;;;;;;1891593;74;21024;-47
2021/09/19 02:09:10;;;;;;;11.45;6.92;;;;;;;;;;1891662;75;21028;-48
2021/09/19 02:11:39;;;;;;;12.33;6.80;;;;;;;;;;1891621;76;21028;-52
2021/09/19 02:14:08;;;;;;;9.35;6.90;;;;;;;;;;1891745;76;21037;-50
2021/09/19 02:16:37;;;;;;;9.25;7.05;;;;;;;;;;1891566;75;21052;-48
2021/09/19 02:19:06;;;;;;;8.18;6.80;;;;;;;;;;1891611;76;21098;-49
2021/09/19 02:21:34;;;;;;;8.83;6.28;;;;;;;;;;1891609;74;20996;-49
2021/09/19 02:24:03;;;;;;;9.45;6.85;;;;;;;;;;1891727;74;21036;-48
2021/09/19 02:26:32;;;;;;;6.50;5.62;;;;;;;;;;1891598;74;21105;-47
2021/09/19 02:29:01;;;;;;;9.78;6.42;;;;;;;;;;1891697;74;21467;-49
2021/09/19 02:31:31;;;;;;;8.68;6.37;;;;;;;;;;1891699;75;21071;-49
2021/09/19 02:34:00;;;;;;;7.58;5.62;;;;;;;;;;1891537;75;21048;-50
2021/09/19 02:36:29;;;;;;;8.03;5.95;;;;;;;;;;1891574;75;21020;-48
2021/09/19 02:38:57;;;;;;;8.95;6.42;;;;;;;;;;1891621;74;21017;-48
2021/09/19 02:41:26;;;;;;;7.60;5.90;;;;;;;;;;1891663;74;21044;-47
2021/09/19 02:43:55;;;;;;;8.25;6.45;;;;;;;;;;1891593;74;21036;-47
2021/09/19 02:46:24;;;;;;;12.53;6.53;;;;;;;;;;1891584;74;21070;-48
2021/09/19 02:48:53;;;;;;;6.65;6.00;;;;;;;;;;1891546;74;21036;-49
2021/09/19 02:51:23;;;;;;;7.83;6.22;;;;;;;;;;1891678;75;21040;-47
2021/09/19 02:53:51;;;;;;;12.28;7.05;;;;;;;;;;1891711;75;21052;-50
2021/09/19 02:56:20;;;;;;;7.62;5.45;;;;;;;;;;1891554;74;21149;-51
2021/09/19 02:58:49;;;;;;;9.05;6.87;;;;;;;;;;1891593;74;21105;-49
2021/09/19 03:01:18;;;;;;;10.28;6.65;;;;;;;;;;1891719;75;21060;-49
2021/09/19 03:03:47;;;;;;;6.85;5.97;;;;;;;;;;1891672;76;21036;-50
2021/09/19 03:06:16;;;;;;;10.38;6.72;;;;;;;;;;1891702;76;21102;-50
2021/09/19 03:08:45;;;;;;;14.43;7.30;;;;;;;;;;1891624;76;21024;-52
2021/09/19 03:11:13;;;;;;;9.15;7.12;;;;;;;;;;1891606;76;21020;-51
2021/09/19 03:13:42;;;;;;;8.98;7.17;;;;;;;;;;1891537;74;21032;-47
2021/09/19 03:16:11;;;;;;;14.25;8.38;;;;;;;;;;1880201;75;21126;-48
2021/09/19 03:18:40;;;;;;;11.38;7.05;;;;;;;;;;1872950;76;21084;-48
2021/09/19 03:21:09;;;;;;;9.35;6.25;;;;;;;;;;1872854;75;21044;-49
2021/09/19 03:23:37;;;;;;;10.48;6.60;;;;;;;;;;1872891;75;21037;-51
2021/09/19 03:26:06;;;;;;;9.53;6.47;;;;;;;;;;1872843;75;21025;-48
2021/09/19 03:28:35;;;;;;;8.73;6.78;;;;;;;;;;1872876;75;21045;-49
2021/09/19 03:31:04;;;;;;;6.92;5.95;;;;;;;;;;1872833;75;21404;-48
2021/09/19 03:33:33;;;;;;;8.45;6.37;;;;;;;;;;1872908;76;21049;-48
2021/09/19 03:36:01;;;;;;;11.95;7.65;;;;;;;;;;1872751;75;21037;-47
2021/09/19 03:38:30;;;;;;;9.25;6.85;;;;;;;;;;1872751;77;21092;-49
2021/09/19 03:40:59;;;;;;;9.50;6.65;;;;;;;;;;1872800;76;21052;-51
2021/09/19 03:43:28;;;;;;;8.18;6.08;;;;;;;;;;1872868;75;21037;-48
2021/09/19 03:45:57;;;;;;;9.68;7.05;;;;;;;;;;1872881;77;21037;-48
2021/09/19 03:48:26;;;;;;;12.10;6.90;;;;;;;;;;1872873;77;21033;-50
2021/09/19 03:50:54;;;;;;;15.13;9.38;;;;;;;;;;1872825;77;21076;-50
2021/09/19 03:53:23;;;;;;;15.35;9.05;;;;;;;;;;1872781;75;21017;-49
2021/09/19 03:55:52;;;;;;;11.08;7.37;;;;;;;;;;1872923;76;21032;-47
2021/09/19 03:58:22;;;;;;;11.18;7.78;;;;;;;;;;1872923;75;21072;-48
2021/09/19 04:00:51;;;;;;;13.80;8.85;;;;;;;;;;1873014;75;21091;-51
2021/09/19 04:03:20;;;;;;;14.28;8.98;;;;;;;;;;1872885;75;21069;-48
2021/09/19 04:05:49;;;;;;;10.65;7.87;;;;;;;;;;1872930;75;21118;-49
2021/09/19 04:08:18;;;;;;;14.47;9.68;;;;;;;;;;1872882;75;21037;-50
2021/09/19 04:10:46;;;;;;;12.82;8.43;;;;;;;;;;1872815;75;21099;-48
2021/09/19 04:13:15;;;;;;;11.45;8.65;;;;;;;;;;1872834;75;21041;-48
2021/09/19 04:15:44;;;;;;;20.32;18.30;;;;;;;;;;1877263;75;21056;-48
2021/09/19 04:18:14;;;;;;;11.03;9.90;;;;;;;;;;1891442;75;21036;-48
2021/09/19 04:20:43;;;;;;;9.88;7.83;;;;;;;;;;1891475;75;21000;-48
2021/09/19 04:23:12;;;;;;;14.25;9.60;;;;;;;;;;1891571;74;21024;-48
2021/09/19 04:25:41;;;;;;;16.23;11.10;;;;;;;;;;1891608;75;21063;-49
2021/09/19 04:28:09;;;;;;;18.12;11.35;;;;;;;;;;1891438;76;21024;-47
2021/09/19 04:30:38;;;;;;;17.32;10.68;;;;;;;;;;1891512;74;21106;-48
2021/09/19 04:33:07;;;;;;;16.27;10.38;;;;;;;;;;1891570;74;21097;-50
2021/09/19 04:35:35;;;;;;;13.98;9.35;;;;;;;;;;1891446;75;21040;-49
2021/09/19 04:38:04;;;;;;;14.58;11.18;;;;;;;;;;1891460;74;21052;-50
2021/09/19 04:40:33;;;;;;;16.87;9.75;;;;;;;;;;1891578;76;21028;-51
2021/09/19 04:43:02;;;;;;;13.22;9.10;;;;;;;;;;1891395;75;21016;-48
2021/09/19 04:45:31;;;;;;;12.00;9.45;;;;;;;;;;1891533;74;21032;-47
2021/09/19 04:47:59;;;;;;;11.25;8.90;;;;;;;;;;1891475;76;21102;-51
2021/09/19 04:50:28;;;;;;;10.58;8.28;;;;;;;;;;1891523;75;21098;-47
2021/09/19 04:52:57;;;;;;;12.90;8.20;;;;;;;;;;1891519;75;21007;-48
2021/09/19 04:55:26;;;;;;;11.80;9.10;;;;;;;;;;1891636;75;21008;-48
2021/09/19 04:57:55;;;;;;;14.58;8.65;;;;;;;;;;1891596;76;21036;-50
2021/09/19 05:00:23;;;;;;;12.82;9.00;;;;;;;;;;1891619;76;21040;-48
2021/09/19 05:02:52;;;;;;;12.65;8.78;;;;;;;;;;1891632;75;21016;-50
2021/09/19 05:05:21;;;;;;;11.48;7.47;;;;;;;;;;1891465;75;21044;-51
2021/09/19 05:07:50;;;;;;;11.12;7.67;;;;;;;;;;1891431;74;21063;-49
2021/09/19 05:10:19;;;;;;;9.43;7.37;;;;;;;;;;1891577;75;21113;-49
2021/09/19 05:12:48;;;;;;;18.25;9.75;;;;;;;;;;1891501;76;21020;-51
2021/09/19 05:15:17;;;;;;;9.75;7.53;;;;;;;;;;1891673;76;21020;-47
2021/09/19 05:17:45;;;;;;;10.55;6.72;;;;;;;;;;1874656;75;21048;-50
2021/09/19 05:20:14;;;;;;;8.95;8.00;;;;;;;;;;1872915;76;21001;-49
2021/09/19 05:22:43;;;;;;;10.38;7.60;;;;;;;;;;1872713;75;21146;-50
2021/09/19 05:25:12;;;;;;;9.38;6.90;;;;;;;;;;1872803;75;21108;-49
2021/09/19 05:27:41;;;;;;;28.07;20.68;;;;;;;;;;1872681;75;21092;-47
2021/09/19 05:30:10;;;;;;;12.53;9.43;;;;;;;;;;1872753;76;21041;-48
2021/09/19 05:32:39;;;;;;;24.47;13.62;;;;;;;;;;1872696;75;21095;-50
2021/09/19 05:35:08;;;;;;;34.03;22.40;;;;;;;;;;1872864;75;21037;-49
2021/09/19 05:37:37;;;;;;;33.25;22.65;;;;;;;;;;1872688;76;21044;-48
2021/09/19 05:40:06;;;;;;;21.68;13.55;;;;;;;;;;1872842;75;21037;-50
2021/09/19 05:42:35;;;;;;;19.52;11.30;;;;;;;;;;1872709;75;21177;-48
2021/09/19 05:45:04;;;;;;;18.65;11.88;;;;;;;;;;1872727;76;21068;-51
2021/09/19 05:47:33;;;;;;;17.35;11.63;;;;;;;;;;1872671;76;21040;-48
2021/09/19 05:50:02;;;;;;;17.98;12.28;;;;;;;;;;1872819;75;21009;-49
2021/09/19 05:52:31;;;;;;;11.93;9.30;;;;;;;;;;1872768;75;21100;-50
2021/09/19 05:55:00;;;;;;;11.00;9.13;;;;;;;;;;1872769;75;21041;-50
2021/09/19 05:57:29;;;;;;;14.30;11.12;;;;;;;;;;1872681;76;21114;-51
2021/09/19 05:59:59;;;;;;;12.68;10.25;;;;;;;;;;1872744;76;21099;-51
2021/09/19 06:02:27;;;;;;;11.18;8.28;;;;;;;;;;1872695;75;21025;-48
2021/09/19 06:04:56;;;;;;;16.87;9.45;;;;;;;;;;1872705;75;21095;-50
2021/09/19 06:07:25;;;;;;;11.57;9.15;;;;;;;;;;1872685;76;21041;-47
2021/09/19 06:09:54;;;;;;;11.12;9.68;;;;;;;;;;1872725;76;21080;-51
2021/09/19 06:12:23;;;;;;;12.35;8.83;;;;;;;;;;1872814;77;21041;-51
2021/09/19 06:14:52;;;;;;;13.00;9.73;;;;;;;;;;1872749;75;21060;-51
2021/09/19 06:17:21;;;;;;;12.10;9.23;;;;;;;;;;1872722;75;21170;-50
2021/09/19 06:19:50;;;;;;;13.35;8.63;;;;;;;;;;1873008;75;21032;-50
2021/09/19 06:22:19;;;;;;;10.50;8.75;;;;;;;;;;1872938;76;21025;-51
2021/09/19 06:24:48;;;;;;;13.00;9.83;;;;;;;;;;1872949;75;21037;-48
2021/09/19 06:27:17;;;;;;;15.60;10.48;;;;;;;;;;1872878;76;21145;-50
2021/09/19 06:29:46;;;;;;;16.12;11.97;;;;;;;;;;1872927;75;21107;-50
2021/09/19 06:32:15;;;;;;;15.60;12.73;;;;;;;;;;1872919;75;21037;-49
2021/09/19 06:34:44;;;;;;;16.07;10.48;;;;;;;;;;1873011;75;21095;-49
2021/09/19 06:37:12;;;;;;;15.50;11.18;;;;;;;;;;1872756;76;21045;-50
2021/09/19 06:39:41;;;;;;;16.90;11.53;;;;;;;;;;1872803;75;21076;-50
2021/09/19 06:42:10;;;;;;;17.32;11.43;;;;;;;;;;1872983;75;21143;-50
2021/09/19 06:44:39;;;;;;;16.90;12.63;;;;;;;;;;1872828;75;21099;-48
2021/09/19 06:47:08;;;;;;;13.78;10.08;;;;;;;;;;1872784;75;21049;-50
2021/09/19 06:49:37;;;;;;;15.63;10.08;;;;;;;;;;1872927;76;21099;-51
2021/09/19 06:52:05;;;;;;;15.10;11.73;;;;;;;;;;1872844;75;21040;-50
2021/09/19 06:54:34;;;;;;;13.13;10.23;;;;;;;;;;1872923;76;21036;-48
2021/09/19 06:57:03;;;;;;;13.40;9.75;;;;;;;;;;1872774;77;21099;-49
2021/09/19 06:59:32;;;;;;;16.25;9.95;;;;;;;;;;1872831;75;21021;-50
2021/09/19 07:02:01;;;;;;;14.78;10.03;;;;;;;;;;1872887;75;21084;-51
2021/09/19 07:04:30;;;;;;;14.60;9.25;;;;;;;;;;1872803;76;21100;-50
2021/09/19 07:06:59;;;;;;;14.98;10.10;;;;;;;;;;1872725;76;21017;-48
2021/09/19 07:09:28;;;;;;;16.12;9.00;;;;;;;;;;1872793;75;21067;-51
2021/09/19 07:11:56;;;;;;;14.75;9.50;;;;;;;;;;1872733;77;21111;-50
2021/09/19 07:14:25;;;;;;;18.90;9.85;;;;;;;;;;1872901;75;21036;-48
2021/09/19 07:16:54;;;;;;;9.43;6.95;;;;;;;;;;1875834;75;21052;-48
2021/09/19 07:19:23;;;;;;;8.48;6.00;;;;;;;;;;1891506;75;21133;-47
2021/09/19 07:21:52;;;;;;;17.65;7.55;;;;;;;;;;1891599;75;21047;-49
2021/09/19 07:24:21;;;;;;;10.98;7.72;;;;;;;;;;1891572;75;21075;-48
2021/09/19 07:26:50;;;;;;;7.67;5.47;;;;;;;;;;1891515;75;21035;-47
2021/09/19 07:29:19;;;;;;;6.60;4.72;;;;;;;;;;1891487;75;21102;-49
2021/09/19 07:31:51;;;;;;;7.72;6.10;;;;;;;;;;1891552;76;21040;-48
2021/09/19 07:34:18;;;;;;;6.83;5.70;;;;;;;;;;1891426;75;21600;-49
2021/09/19 07:36:48;;;;;;;6.50;5.28;;;;;;;;;;1891547;74;21106;-47
2021/09/19 07:39:17;;;;;;;7.03;5.67;;;;;;;;;;1891636;76;21094;-48
2021/09/19 07:41:45;;;;;;;8.30;5.67;;;;;;;;;;1891665;74;21094;-48
2021/09/19 07:44:14;;;;;;;10.05;6.65;;;;;;;;;;1891673;76;21032;-47
2021/09/19 07:46:43;;;;;;;7.62;6.87;;;;;;;;;;1891491;75;21030;-48
2021/09/19 07:49:12;;;;;;;10.13;6.55;;;;;;;;;;1891458;75;21028;-47
2021/09/19 07:51:41;;;;;;;5.33;4.75;;;;;;;;;;1891378;76;21095;-49
2021/09/19 07:54:10;;;;;;;8.00;5.50;;;;;;;;;;1891573;75;21040;-48
2021/09/19 07:56:39;;;;;;;10.03;5.60;;;;;;;;;;1891395;75;21095;-47
2021/09/19 07:59:08;;;;;;;7.35;5.42;;;;;;;;;;1891576;75;21024;-48
2021/09/19 08:01:37;;;;;;;8.05;5.50;;;;;;;;;;1891691;75;21036;-49
2021/09/19 08:04:06;;;;;;;8.53;6.22;;;;;;;;;;1891595;75;21040;-49
2021/09/19 08:06:35;;;;;;;8.08;6.05;;;;;;;;;;1891583;75;21117;-47
2021/09/19 08:09:04;;;;;;;10.05;5.58;;;;;;;;;;1891537;76;21044;-48
2021/09/19 08:11:33;;;;;;;7.05;5.55;;;;;;;;;;1891469;74;21044;-49
2021/09/19 08:14:08;;;;;;;11.05;7.00;;;;;;;;;;1891691;74;21028;-51
2021/09/19 08:16:38;;;;;;;10.05;8.43;;;;;;;;;;1891563;75;21036;-48
2021/09/19 08:19:08;;;;;;;34.08;19.25;;;;;;;;;;1874849;75;21060;-50
2021/09/19 08:21:37;;;;;;;10.43;7.10;;;;;;;;;;1872784;75;21025;-48
2021/09/19 08:24:07;;;;;;;9.80;7.28;;;;;;;;;;1872829;75;21053;-49
2021/09/19 08:26:35;;;;;;;10.25;7.78;;;;;;;;;;1872894;77;21025;-49
2021/09/19 08:29:04;;;;;;;13.28;7.85;;;;;;;;;;1872765;75;21086;-49
2021/09/19 08:31:33;;;;;;;11.15;8.05;;;;;;;;;;1872816;76;21103;-48
2021/09/19 08:34:02;;;;;;;12.13;8.60;;;;;;;;;;1872788;75;21295;-48
2021/09/19 08:36:31;;;;;;;20.43;12.50;;;;;;;;;;1872744;75;21174;-49
2021/09/19 08:39:00;;;;;;;47.20;23.95;;;;;;;;;;1872742;76;21098;-48
2021/09/19 08:41:29;;;;;;;20.48;14.40;;;;;;;;;;1872849;76;21037;-51
2021/09/19 08:43:57;;;;;;;18.40;14.78;;;;;;;;;;1872777;77;21041;-50
2021/09/19 08:46:26;;;;;;;17.15;12.28;;;;;;;;;;1872830;75;21098;-49
2021/09/19 08:48:55;;;;;;;11.38;9.48;;;;;;;;;;1872842;75;21017;-50
2021/09/19 08:51:24;;;;;;;9.30;7.95;;;;;;;;;;1872788;75;21143;-47
2021/09/19 08:53:53;;;;;;;14.07;8.33;;;;;;;;;;1872907;75;21041;-48
2021/09/19 08:56:23;;;;;;;13.50;7.95;;;;;;;;;;1872714;75;21045;-50
2021/09/19 08:58:52;;;;;;;10.28;8.45;;;;;;;;;;1872744;75;21064;-48
2021/09/19 09:01:21;;;;;;;9.55;8.43;;;;;;;;;;1872859;77;21025;-49
2021/09/19 09:03:50;;;;;;;18.80;8.35;;;;;;;;;;1872878;75;21130;-47
2021/09/19 09:06:19;;;;;;;10.13;6.92;;;;;;;;;;1872798;76;21082;-47
2021/09/19 09:08:48;;;;;;;10.82;7.25;;;;;;;;;;1872878;75;21017;-48
2021/09/19 09:11:17;;;;;;;9.13;7.50;;;;;;;;;;1872740;75;21017;-48
2021/09/19 09:13:45;;;;;;;10.25;7.28;;;;;;;;;;1872839;75;21036;-48
2021/09/19 09:16:15;;;;;;;12.30;6.92;;;;;;;;;;1872678;75;21134;-47
2021/09/19 09:18:52;;;;;;;9.85;6.85;;;;;;;;;;1872551;75;21511;-49
2021/09/19 09:21:19;;;;;;;8.20;7.40;;;;;;;;;;1871967;75;21562;-48
2021/09/19 09:23:49;;;;;;;10.10;7.12;;;;;;;;;;1872725;77;21044;-48
2021/09/19 09:26:19;;;;;;;11.38;7.22;;;;;;;;;;1872984;76;21013;-47
2021/09/19 09:28:49;;;;;;;13.68;7.22;;;;;;;;;;1872772;76;21036;-47
2021/09/19 09:31:25;;;;;;;8.83;7.03;;;;;;;;;;1872807;76;21108;-48
2021/09/19 09:33:55;;;;;;;12.10;7.65;;;;;;;;;;1872817;76;21024;-47
2021/09/19 09:36:34;;;;;;;13.35;7.78;;;;;;;;;;1872873;76;21036;-50
2021/09/19 09:39:03;;;;;;;10.38;8.90;;;;;;;;;;1872801;76;21543;-51
2021/09/19 09:41:39;;;;;;;9.25;7.10;;;;;;;;;;1871490;76;21075;-51
2021/09/19 09:44:26;;;;;;;9.53;6.83;;;;;;;;;;1873015;77;21008;-50
2021/09/19 09:46:55;;;;;;;9.55;6.47;;;;;;;;;;1872904;76;21045;-51
2021/09/19 09:49:24;;;;;;;8.85;6.35;;;;;;;;;;1872759;76;21041;-49
2021/09/19 09:51:53;;;;;;;13.05;10.35;;;;;;;;;;1872921;76;21041;-48
2021/09/19 09:54:22;;;;;;;12.47;9.00;;;;;;;;;;1872870;76;21080;-50
2021/09/19 09:56:51;;;;;;;15.23;8.90;;;;;;;;;;1872883;77;21037;-50
2021/09/19 09:59:20;;;;;;;9.85;8.13;;;;;;;;;;1873029;76;21160;-50
2021/09/19 10:01:48;;;;;;;11.68;8.30;;;;;;;;;;1872780;77;21041;-50
2021/09/19 10:04:17;;;;;;;9.78;6.12;;;;;;;;;;1872904;76;21030;-50
2021/09/19 10:06:46;;;;;;;14.60;6.83;;;;;;;;;;1872848;75;21044;-50
2021/09/19 10:09:15;;;;;;;6.12;5.25;;;;;;;;;;1872869;76;21099;-50
2021/09/19 10:11:43;;;;;;;6.03;5.30;;;;;;;;;;1872823;76;21088;-50
2021/09/19 10:14:12;;;;;;;8.88;5.15;;;;;;;;;;1872797;75;21103;-51
2021/09/19 10:16:41;;;;;;;8.40;6.05;;;;;;;;;;1872762;77;21041;-51
2021/09/19 10:19:12;;;;;;;8.65;6.25;;;;;;;;;;1882678;75;21059;-50
2021/09/19 10:21:42;;;;;;;7.55;5.72;;;;;;;;;;1891518;76;21052;-49
2021/09/19 10:24:11;;;;;;;7.62;6.15;;;;;;;;;;1891560;75;21090;-51
2021/09/19 10:26:40;;;;;;;7.80;6.12;;;;;;;;;;1891624;74;21028;-51
2021/09/19 10:29:10;;;;;;;6.65;5.62;;;;;;;;;;1890176;75;21028;-50
2021/09/19 10:31:40;;;;;;;6.30;5.12;;;;;;;;;;1890685;75;21169;-50
2021/09/19 10:34:10;;;;;;;8.03;5.85;;;;;;;;;;1890979;75;21032;-47
2021/09/19 10:36:40;;;;;;;11.95;6.12;;;;;;;;;;1891433;75;21114;-49
2021/09/19 10:39:12;;;;;;;10.30;7.45;;;;;;;;;;1891358;74;21039;-48
2021/09/19 10:41:45;;;;;;;7.80;5.83;;;;;;;;;;1891443;75;21165;-48
2021/09/19 10:44:14;;;;;;;10.15;6.08;;;;;;;;;;1872666;76;21082;-49
2021/09/19 10:46:48;;;;;;;6.90;5.60;;;;;;;;;;1891630;75;21053;-49
2021/09/19 10:49:14;;;;;;;15.18;13.18;;;;;;;;;;1891157;75;21522;-51
2021/09/19 10:52:02;;;;;;;10.72;7.33;;;;;;;;;;1891544;74;21067;-51
2021/09/19 10:54:44;;;;;;;9.25;6.50;;;;;;;;;;1891713;75;21004;-48
2021/09/19 10:57:20;;;;;;;12.47;5.85;;;;;;;;;;1891542;75;21110;-48
2021/09/19 11:00:07;;;;;;;9.45;6.12;;;;;;;;;;1891605;74;21031;-51
2021/09/19 11:02:36;;;;;;;10.60;6.08;;;;;;;;;;1891449;75;21060;-48
2021/09/19 11:05:23;;;;;;;11.75;8.00;;;;;;;;;;1891595;76;21115;-47
2021/09/19 11:07:53;;;;;;;8.50;6.10;;;;;;;;;;1891606;75;21188;-48
2021/09/19 11:10:22;;;;;;;7.80;6.55;;;;;;;;;;1890161;75;21072;-48
2021/09/19 11:12:51;;;;;;;9.55;6.85;;;;;;;;;;1891575;74;21036;-48
2021/09/19 11:15:24;;;;;;;10.00;6.33;;;;;;;;;;1891713;74;21035;-47
2021/09/19 11:17:52;;;;;;;7.67;5.50;;;;;;;;;;1891501;75;21111;-49
2021/09/19 11:20:22;;;;;;;9.58;6.55;;;;;;;;;;1891481;75;21111;-50
2021/09/19 11:22:52;;;;;;;7.60;6.08;;;;;;;;;;1891533;76;21040;-50
2021/09/19 11:25:21;;;;;;;8.53;5.92;;;;;;;;;;1891575;74;21525;-48
2021/09/19 11:27:51;;;;;;;5.75;5.22;;;;;;;;;;1891614;75;21026;-47
2021/09/19 11:30:28;;;;;;;8.03;5.90;;;;;;;;;;1891504;76;21505;-48
2021/09/19 11:32:54;;;;;;;8.63;5.50;;;;;;;;;;1891315;75;21475;-48
2021/09/19 11:35:23;;;;;;;6.35;5.62;;;;;;;;;;1891533;76;21158;-48
2021/09/19 11:37:58;;;;;;;8.38;5.30;;;;;;;;;;1891497;74;21016;-48
2021/09/19 11:40:27;;;;;;;7.60;5.45;;;;;;;;;;1891535;75;21004;-50
2021/09/19 11:42:58;;;;;;;8.98;5.47;;;;;;;;;;1891491;75;21017;-50
2021/09/19 11:45:27;;;;;;;12.43;5.67;;;;;;;;;;1891443;76;21482;-49
2021/09/19 11:47:56;;;;;;;10.93;6.97;;;;;;;;;;1891486;75;21083;-49
2021/09/19 11:50:25;;;;;;;7.03;5.70;;;;;;;;;;1891503;75;21048;-50
2021/09/19 11:52:54;;;;;;;6.72;5.50;;;;;;;;;;1891440;76;21173;-51
2021/09/19 11:55:23;;;;;;;8.70;6.33;;;;;;;;;;1891540;74;21075;-51
2021/09/19 11:57:52;;;;;;;8.55;5.72;;;;;;;;;;1891455;74;21020;-49
2021/09/19 12:00:20;;;;;;;7.22;5.25;;;;;;;;;;1891604;76;21027;-47
2021/09/19 12:02:51;;;;;;;6.10;5.37;;;;;;;;;;1891485;75;21036;-47
2021/09/19 12:05:21;;;;;;;7.20;4.92;;;;;;;;;;1891556;75;21019;-50
2021/09/19 12:07:50;;;;;;;8.13;5.40;;;;;;;;;;1891683;75;21109;-51
2021/09/19 12:10:20;;;;;;;7.10;5.47;;;;;;;;;;1891568;75;21004;-51
2021/09/19 12:12:48;;;;;;;9.75;6.92;;;;;;;;;;1891440;75;21031;-51
2021/09/19 12:15:18;;;;;;;18.73;10.35;;;;;;;;;;1891491;74;21092;-50
2021/09/19 12:17:48;;;;;;;16.75;9.63;;;;;;;;;;1888851;75;21032;-49
2021/09/19 12:20:17;;;;;;;9.50;5.92;;;;;;;;;;1889616;74;21059;-50
2021/09/19 12:22:46;;;;;;;8.55;6.80;;;;;;;;;;1891603;75;21016;-51
2021/09/19 12:25:15;;;;;;;9.63;6.17;;;;;;;;;;1891464;74;21023;-51
2021/09/19 12:27:45;;;;;;;11.95;8.03;;;;;;;;;;1891519;75;21012;-49
2021/09/19 12:30:15;;;;;;;7.78;6.15;;;;;;;;;;1891492;74;21051;-49
2021/09/19 12:32:49;;;;;;;9.30;6.12;;;;;;;;;;1891612;75;21482;-51
2021/09/19 12:35:25;;;;;;;9.58;7.33;;;;;;;;;;1891670;75;21024;-50
2021/09/19 12:37:55;;;;;;;10.28;7.00;;;;;;;;;;1891514;74;21086;-48
2021/09/19 12:40:24;;;;;;;7.30;6.47;;;;;;;;;;1891407;75;21094;-49
2021/09/19 12:42:53;;;;;;;8.45;6.95;;;;;;;;;;1891567;74;21456;-48
2021/09/19 12:45:24;;;;;;;10.20;5.92;;;;;;;;;;1891548;76;21061;-49
2021/09/19 12:47:53;;;;;;;9.95;6.65;;;;;;;;;;1891487;76;21063;-50
2021/09/19 12:50:23;;;;;;;8.15;7.30;;;;;;;;;;1890920;75;21181;-51
2021/09/19 12:52:52;;;;;;;9.78;7.15;;;;;;;;;;1891724;74;21087;-49
2021/09/19 12:55:21;;;;;;;11.53;7.00;;;;;;;;;;1891610;76;21020;-50
2021/09/19 12:57:50;;;;;;;18.48;13.48;;;;;;;;;;1891513;75;21110;-49
2021/09/19 13:00:19;;;;;;;8.78;7.15;;;;;;;;;;1891494;75;21039;-48
2021/09/19 13:02:58;;;;;;;8.28;7.47;;;;;;;;;;1891513;75;21041;-47
2021/09/19 13:05:27;;;;;;;10.75;9.38;;;;;;;;;;1891608;75;21036;-48
2021/09/19 13:07:55;;;;;;;13.62;10.80;;;;;;;;;;1891478;75;21102;-51
2021/09/19 13:10:25;;;;;;;11.03;9.83;;;;;;;;;;1891510;74;21043;-48
2021/09/19 13:12:54;;;;;;;13.40;10.28;;;;;;;;;;1891481;75;21056;-47
2021/09/19 13:15:24;;;;;;;7.83;6.83;;;;;;;;;;1891317;75;21091;-48
2021/09/19 13:17:53;;;;;;;10.95;6.47;;;;;;;;;;1891385;74;21071;-49
2021/09/19 13:20:22;;;;;;;9.30;5.83;;;;;;;;;;1891264;75;21063;-50
2021/09/19 13:22:51;;;;;;;9.00;6.17;;;;;;;;;;1891445;75;21110;-49
2021/09/19 13:25:21;;;;;;;8.30;5.97;;;;;;;;;;1891491;75;21161;-48
2021/09/19 13:27:50;;;;;;;8.55;6.28;;;;;;;;;;1891629;75;21040;-49
2021/09/19 13:30:19;;;;;;;7.72;6.20;;;;;;;;;;1891579;75;21028;-49
2021/09/19 13:32:48;;;;;;;8.00;7.15;;;;;;;;;;1891453;74;21114;-47
2021/09/19 13:35:17;;;;;;;10.68;6.97;;;;;;;;;;1891708;74;21090;-48
2021/09/19 13:37:45;;;;;;;8.25;5.65;;;;;;;;;;1891782;75;21004;-48
2021/09/19 13:40:14;;;;;;;11.20;5.87;;;;;;;;;;1891527;75;21024;-49
2021/09/19 13:42:43;;;;;;;8.35;5.72;;;;;;;;;;1891820;74;21072;-51
2021/09/19 13:45:12;;;;;;;6.75;5.67;;;;;;;;;;1891696;75;21119;-50
2021/09/19 13:47:42;;;;;;;8.03;6.17;;;;;;;;;;1891621;76;21027;-50
2021/09/19 13:50:11;;;;;;;9.43;7.22;;;;;;;;;;1891593;74;21087;-51
2021/09/19 13:52:39;;;;;;;10.38;6.28;;;;;;;;;;1891637;74;21093;-51
2021/09/19 13:55:08;;;;;;;11.93;6.95;;;;;;;;;;1891576;76;21020;-48
2021/09/19 13:57:37;;;;;;;7.60;5.78;;;;;;;;;;1891601;74;21043;-48
2021/09/19 14:00:06;;;;;;;12.03;8.83;;;;;;;;;;1891408;74;21106;-51
2021/09/19 14:02:36;;;;;;;10.68;6.12;;;;;;;;;;1891774;75;21000;-48
2021/09/19 14:05:06;;;;;;;5.35;4.83;;;;;;;;;;1891506;75;21008;-51
2021/09/19 14:07:35;;;;;;;6.53;5.53;;;;;;;;;;1891622;75;21031;-48
2021/09/19 14:10:05;;;;;;;6.03;5.03;;;;;;;;;;1891751;75;21072;-51
2021/09/19 14:12:34;;;;;;;6.33;5.37;;;;;;;;;;1891484;76;21082;-49
2021/09/19 14:15:02;;;;;;;9.55;5.30;;;;;;;;;;1891737;76;21086;-51
2021/09/19 14:17:31;;;;;;;8.15;5.80;;;;;;;;;;1891726;75;21060;-49
2021/09/19 14:20:00;;;;;;;7.22;5.85;;;;;;;;;;1889123;74;21098;-50
2021/09/19 14:22:29;;;;;;;7.58;5.12;;;;;;;;;;1873095;75;21127;-47
2021/09/19 14:24:58;;;;;;;6.62;5.80;;;;;;;;;;1872898;75;21017;-51
2021/09/19 14:27:27;;;;;;;6.42;5.70;;;;;;;;;;1872855;76;21017;-52
2021/09/19 14:29:56;;;;;;;9.75;6.30;;;;;;;;;;1872884;75;21017;-49
2021/09/19 14:32:24;;;;;;;13.60;10.45;;;;;;;;;;1872705;75;21037;-50
2021/09/19 14:34:53;;;;;;;12.75;9.28;;;;;;;;;;1872813;75;21076;-47
2021/09/19 14:37:22;;;;;;;10.65;8.28;;;;;;;;;;1872655;76;21037;-51
2021/09/19 14:39:51;;;;;;;9.33;8.20;;;;;;;;;;1872784;75;21546;-48
2021/09/19 14:42:20;;;;;;;7.62;6.55;;;;;;;;;;1872969;77;21107;-49
2021/09/19 14:44:48;;;;;;;9.20;6.30;;;;;;;;;;1872866;76;21087;-47